Time;durP1;ratioP1;P1;durP2;ratioP2;P2;SDS_P1;SDS_P2;PMS_P1;PMS_P2;Temp;Humidity;BMP_temperature;BMP_pressure;BME280_temperature;BME280_humidity;BME280_pressure;Samples;Min_cycle;Max_cycle;Signal;HPM_P1;HPM_P2
2024/03/15 01:31:29;;;;;;;11.15;8.05;;;13.10;99.90;;;;;;6275940;22;20008;-82
2024/03/15 01:33:55;;;;;;;12.48;7.15;;;13.00;99.90;;;;;;6295669;22;38337;-82
2024/03/15 01:36:22;;;;;;;11.20;7.95;;;12.90;99.90;;;;;;6291454;22;37545;-79
2024/03/15 01:38:48;;;;;;;17.45;8.88;;;12.80;99.90;;;;;;6289484;22;37294;-79
2024/03/15 01:41:14;;;;;;;10.80;7.68;;;12.80;99.90;;;;;;6308401;22;38846;-79
2024/03/15 01:43:49;;;;;;;10.65;7.88;;;12.80;99.90;;;;;;6284452;22;38877;-79
2024/03/15 01:46:17;;;;;;;11.90;7.93;;;12.80;99.90;;;;;;6307045;22;39327;-79
2024/03/15 01:48:44;;;;;;;9.43;7.65;;;12.70;99.90;;;;;;6283649;22;36298;-79
2024/03/15 01:51:13;;;;;;;11.23;8.05;;;12.70;99.90;;;;;;6281591;22;39103;-79
2024/03/15 01:53:40;;;;;;;10.85;7.40;;;12.60;99.90;;;;;;6281005;22;37837;-80
2024/03/15 01:56:06;;;;;;;12.02;8.35;;;12.60;99.90;;;;;;6280045;22;37322;-79
2024/03/15 01:58:32;;;;;;;13.55;9.15;;;12.60;99.90;;;;;;6311612;22;38119;-80
2024/03/15 02:03:48;;;;;;;9.75;7.63;;;12.60;99.90;;;;;;6300849;22;20016;-80
2024/03/15 02:06:16;;;;;;;14.40;8.77;;;12.60;99.90;;;;;;6293409;22;38609;-79
2024/03/15 02:08:43;;;;;;;17.70;9.23;;;12.60;99.90;;;;;;6297282;22;36287;-80
2024/03/15 02:11:10;;;;;;;12.23;8.40;;;12.60;99.90;;;;;;6291000;22;38185;-80
2024/03/15 02:13:37;;;;;;;15.73;8.98;;;12.60;99.90;;;;;;6291716;22;39585;-79
2024/03/15 02:16:03;;;;;;;16.08;8.73;;;12.60;99.90;;;;;;6316416;22;38882;-80
2024/03/15 02:18:30;;;;;;;10.90;8.57;;;12.60;99.90;;;;;;6287952;22;37181;-80
2024/03/15 02:20:56;;;;;;;11.77;8.10;;;12.60;99.90;;;;;;6312399;22;38902;-79
2024/03/15 02:23:22;;;;;;;15.80;9.45;;;12.50;99.90;;;;;;6311570;22;39038;-79
2024/03/15 02:25:49;;;;;;;12.23;9.18;;;12.50;99.90;;;;;;6282820;22;39291;-79
2024/03/15 02:28:15;;;;;;;11.75;8.55;;;12.50;99.90;;;;;;6281108;22;38232;-79
2024/03/15 02:30:41;;;;;;;18.58;9.65;;;12.40;99.90;;;;;;6283274;22;39612;-79
2024/03/15 02:33:07;;;;;;;15.48;8.88;;;12.40;99.90;;;;;;6309244;22;39502;-79
2024/03/15 02:35:34;;;;;;;11.98;8.82;;;12.40;99.90;;;;;;6309314;22;39603;-79
2024/03/15 02:38:00;;;;;;;11.07;8.25;;;12.40;99.90;;;;;;6282420;22;38770;-78
2024/03/15 02:40:26;;;;;;;12.52;9.70;;;12.40;99.90;;;;;;6308538;22;38753;-79
2024/03/15 02:42:52;;;;;;;16.65;8.95;;;12.40;99.90;;;;;;6282403;22;38413;-78
2024/03/15 02:45:21;;;;;;;11.88;8.75;;;12.40;99.90;;;;;;6280287;22;38849;-79
2024/03/15 02:47:47;;;;;;;13.48;9.23;;;12.40;99.90;;;;;;6280128;22;35943;-79
2024/03/15 02:50:13;;;;;;;13.13;9.43;;;12.30;99.90;;;;;;6305686;22;39804;-79
2024/03/15 02:52:39;;;;;;;15.05;8.98;;;12.30;99.90;;;;;;6280082;22;39482;-79
2024/03/15 02:55:06;;;;;;;13.85;9.43;;;12.30;99.90;;;;;;6279097;22;39899;-79
2024/03/15 02:57:32;;;;;;;15.95;10.25;;;12.30;99.90;;;;;;6280189;22;37347;-79
2024/03/15 02:59:58;;;;;;;13.60;9.32;;;12.30;99.90;;;;;;6277419;22;40545;-79
2024/03/15 03:02:24;;;;;;;13.00;8.82;;;12.30;99.90;;;;;;6278186;22;40480;-79
2024/03/15 03:04:51;;;;;;;13.77;9.05;;;12.20;99.90;;;;;;6278465;22;39239;-79
2024/03/15 03:07:18;;;;;;;14.98;8.52;;;12.30;99.90;;;;;;6276871;22;38244;-79
2024/03/15 03:09:44;;;;;;;18.52;9.82;;;12.30;99.90;;;;;;6277700;22;38094;-79
2024/03/15 03:12:10;;;;;;;11.05;8.77;;;12.40;99.90;;;;;;6304656;22;38256;-79
2024/03/15 03:14:37;;;;;;;12.68;8.57;;;12.30;99.90;;;;;;6280384;22;38283;-79
2024/03/15 03:17:03;;;;;;;15.80;9.30;;;12.40;99.90;;;;;;6279066;22;36163;-78
2024/03/15 03:19:29;;;;;;;13.05;8.60;;;12.40;99.90;;;;;;6279253;22;38432;-79
2024/03/15 03:21:56;;;;;;;15.60;8.48;;;12.40;99.90;;;;;;6277970;22;39664;-79
2024/03/15 03:24:22;;;;;;;12.02;7.57;;;12.50;99.90;;;;;;6277135;22;39228;-78
2024/03/15 03:26:48;;;;;;;14.35;8.48;;;12.50;99.90;;;;;;6305938;22;37814;-78
2024/03/15 03:29:14;;;;;;;10.57;6.97;;;12.50;99.90;;;;;;6278857;22;40509;-79
2024/03/15 03:31:40;;;;;;;10.75;7.50;;;12.50;99.90;;;;;;6280153;22;39405;-79
2024/03/15 03:34:06;;;;;;;10.98;7.10;;;12.50;99.90;;;;;;6281300;22;38847;-78
2024/03/15 03:36:36;;;;;;;10.60;7.47;;;12.50;99.90;;;;;;6278731;22;37076;-78
2024/03/15 03:39:04;;;;;;;13.88;7.68;;;12.40;99.90;;;;;;6278021;22;39096;-78
2024/03/15 03:41:31;;;;;;;11.85;7.20;;;12.40;99.90;;;;;;6277226;22;39711;-79
2024/03/15 03:43:57;;;;;;;11.68;7.10;;;12.30;99.90;;;;;;6305508;22;38601;-79
2024/03/15 03:46:25;;;;;;;11.45;6.88;;;12.30;99.90;;;;;;6279015;22;38753;-78
2024/03/15 03:48:51;;;;;;;9.95;6.88;;;12.30;99.90;;;;;;6278664;22;40123;-78
2024/03/15 03:51:18;;;;;;;11.18;7.07;;;12.30;99.90;;;;;;6275218;22;39460;-77
2024/03/15 03:53:46;;;;;;;12.82;6.07;;;12.30;99.90;;;;;;6276316;22;38300;-78
2024/03/15 03:56:15;;;;;;;12.75;6.93;;;12.30;99.90;;;;;;6305109;22;37918;-77
2024/03/15 03:58:41;;;;;;;10.38;6.97;;;12.40;99.90;;;;;;6305979;22;38974;-78
2024/03/15 04:01:07;;;;;;;9.93;6.82;;;12.40;99.90;;;;;;6308191;22;39441;-78
2024/03/15 04:03:33;;;;;;;12.27;6.88;;;12.40;99.90;;;;;;6278774;22;39470;-79
2024/03/15 04:06:00;;;;;;;11.40;6.38;;;12.40;99.90;;;;;;6279935;22;37960;-78
2024/03/15 04:08:26;;;;;;;8.52;6.93;;;12.40;99.90;;;;;;6309668;22;47530;-78
2024/03/15 04:10:56;;;;;;;10.10;7.45;;;12.40;99.90;;;;;;6280646;22;40646;-78
2024/03/15 04:13:22;;;;;;;10.05;7.55;;;12.40;99.90;;;;;;6279768;22;39930;-78
2024/03/15 04:15:51;;;;;;;9.95;7.28;;;12.40;99.90;;;;;;6280522;22;37073;-78
2024/03/15 04:18:17;;;;;;;13.95;7.28;;;12.40;99.90;;;;;;6279638;22;40635;-79
2024/03/15 04:20:46;;;;;;;12.77;6.97;;;12.40;99.90;;;;;;6306631;22;39039;-78
2024/03/15 04:23:12;;;;;;;13.05;7.25;;;12.40;99.90;;;;;;6281936;22;37412;-78
2024/03/15 04:25:38;;;;;;;9.95;6.70;;;12.40;99.90;;;;;;6308329;22;36962;-78
2024/03/15 04:28:04;;;;;;;10.77;6.43;;;12.40;99.90;;;;;;6277966;22;37771;-78
2024/03/15 04:30:30;;;;;;;13.60;7.65;;;12.40;99.90;;;;;;6307003;22;38949;-79
2024/03/15 04:32:57;;;;;;;10.68;5.68;;;12.40;99.90;;;;;;6281705;22;37673;-78
2024/03/15 04:35:23;;;;;;;12.93;7.25;;;12.30;99.90;;;;;;6278606;22;36327;-79
2024/03/15 04:37:49;;;;;;;11.60;7.45;;;12.30;99.90;;;;;;6279749;22;39335;-79
2024/03/15 04:40:15;;;;;;;10.77;6.75;;;12.30;99.90;;;;;;6277479;22;38257;-79
2024/03/15 04:42:41;;;;;;;15.65;8.40;;;12.30;99.90;;;;;;6312861;22;39473;-79
2024/03/15 04:45:11;;;;;;;15.20;7.32;;;12.30;99.90;;;;;;6309492;22;39802;-79
2024/03/15 04:47:41;;;;;;;12.02;7.70;;;12.30;99.90;;;;;;6280989;22;39756;-79
2024/03/15 04:50:09;;;;;;;14.95;7.50;;;12.20;99.90;;;;;;6278319;22;38249;-78
2024/03/15 04:52:41;;;;;;;13.32;8.30;;;12.30;99.90;;;;;;6280655;22;38322;-79
2024/03/15 04:55:10;;;;;;;14.17;9.03;;;12.20;99.90;;;;;;6308138;22;37663;-79
2024/03/15 04:57:39;;;;;;;12.68;8.48;;;12.20;99.90;;;;;;6283335;22;40436;-79
2024/03/15 05:00:17;;;;;;;11.05;8.45;;;12.20;99.90;;;;;;6281958;22;37932;-79
2024/03/15 05:02:44;;;;;;;13.27;8.60;;;12.20;99.90;;;;;;6305409;22;38865;-79
2024/03/15 05:05:13;;;;;;;11.18;8.18;;;12.20;99.90;;;;;;6306659;22;37662;-79
2024/03/15 05:07:39;;;;;;;17.65;10.40;;;12.20;99.90;;;;;;6280250;22;39600;-79
2024/03/15 05:10:06;;;;;;;16.77;10.77;;;12.20;99.90;;;;;;6277081;22;40480;-78
2024/03/15 05:12:34;;;;;;;16.67;10.05;;;12.20;99.90;;;;;;6279846;22;38873;-78
2024/03/15 05:15:01;;;;;;;19.33;10.43;;;12.20;99.90;;;;;;6276442;22;38487;-78
2024/03/15 05:17:28;;;;;;;18.23;10.40;;;12.20;99.90;;;;;;6278618;22;39570;-78
2024/03/15 05:19:55;;;;;;;15.82;10.20;;;12.20;99.90;;;;;;6276650;22;39021;-78
2024/03/15 05:22:24;;;;;;;21.75;11.98;;;12.20;99.90;;;;;;6278558;22;37389;-79
2024/03/15 05:24:50;;;;;;;16.20;11.30;;;12.20;99.90;;;;;;6281497;22;37942;-78
2024/03/15 05:27:16;;;;;;;20.85;10.52;;;12.20;99.90;;;;;;6307882;22;39702;-79
2024/03/15 05:29:45;;;;;;;21.27;10.35;;;12.20;99.90;;;;;;6281278;22;39604;-79
2024/03/15 05:32:11;;;;;;;19.45;11.32;;;12.20;99.90;;;;;;6278081;22;39222;-79
2024/03/15 05:34:38;;;;;;;14.18;9.52;;;12.20;99.90;;;;;;6281465;22;38951;-78
2024/03/15 05:37:05;;;;;;;16.63;9.05;;;12.20;99.90;;;;;;6305957;22;39790;-79
2024/03/15 05:39:31;;;;;;;15.65;9.23;;;12.20;99.90;;;;;;6277616;22;39895;-78
2024/03/15 05:41:57;;;;;;;20.35;9.90;;;12.10;99.90;;;;;;6275935;22;40295;-79
2024/03/15 05:44:23;;;;;;;18.23;10.23;;;12.10;99.90;;;;;;6306072;22;36638;-79
2024/03/15 05:46:50;;;;;;;22.42;11.88;;;12.10;99.90;;;;;;6278695;22;40550;-79
2024/03/15 05:49:17;;;;;;;19.80;11.13;;;12.10;99.90;;;;;;6305502;22;39042;-78
2024/03/15 05:51:43;;;;;;;16.70;10.55;;;12.20;99.90;;;;;;6280137;22;39279;-79
2024/03/15 05:54:10;;;;;;;16.50;10.15;;;12.20;99.90;;;;;;6279784;22;37665;-78
2024/03/15 05:56:37;;;;;;;22.00;11.82;;;12.20;99.90;;;;;;6294820;22;39724;-79
2024/03/15 05:59:03;;;;;;;23.67;11.80;;;12.20;99.90;;;;;;6277491;22;38716;-79
2024/03/15 06:01:29;;;;;;;18.42;12.40;;;12.20;99.90;;;;;;6279983;22;38348;-78
2024/03/15 06:03:55;;;;;;;20.67;12.30;;;12.20;99.90;;;;;;6279912;22;38788;-79
2024/03/15 06:06:21;;;;;;;30.67;12.75;;;12.20;99.90;;;;;;6281672;22;39769;-79
2024/03/15 06:08:48;;;;;;;21.33;12.20;;;12.20;99.90;;;;;;6280984;22;40432;-79
2024/03/15 06:11:14;;;;;;;22.65;11.98;;;12.20;99.90;;;;;;6278172;22;39073;-79
2024/03/15 06:13:40;;;;;;;23.40;11.27;;;12.20;99.90;;;;;;6306857;22;38266;-79
2024/03/15 06:16:10;;;;;;;23.63;11.95;;;12.30;99.90;;;;;;6275977;22;39546;-79
2024/03/15 06:18:37;;;;;;;19.00;11.00;;;12.20;99.90;;;;;;6307244;22;39047;-79
2024/03/15 06:21:03;;;;;;;17.85;10.52;;;12.20;99.90;;;;;;6279107;22;39433;-78
2024/03/15 06:23:30;;;;;;;28.13;10.55;;;12.30;99.90;;;;;;6278458;22;36573;-78
2024/03/15 06:25:57;;;;;;;16.25;9.32;;;12.30;99.90;;;;;;6268854;22;40222;-77
2024/03/15 06:28:23;;;;;;;18.10;9.05;;;12.30;99.90;;;;;;6252060;22;40261;-78
2024/03/15 06:30:53;;;;;;;16.58;8.20;;;12.30;99.90;;;;;;6257533;22;39834;-78
2024/03/15 06:33:21;;;;;;;22.38;8.15;;;12.30;99.90;;;;;;6257426;22;38417;-78
2024/03/15 06:35:53;;;;;;;20.48;8.63;;;12.40;99.90;;;;;;6289633;22;38684;-78
2024/03/15 06:39:19;;;;;;;19.50;7.10;;;12.40;99.90;;;;;;6257881;22;37758;-79
2024/03/15 06:41:13;;;;;;;19.33;5.88;;;12.40;99.90;;;;;;6275332;22;39691;-78
2024/03/15 06:43:45;;;;;;;20.52;5.68;;;12.40;99.90;;;;;;6261686;22;37838;-78
2024/03/15 06:46:20;;;;;;;12.77;5.45;;;12.40;99.90;;;;;;6260471;22;37907;-78
2024/03/15 06:49:12;;;;;;;15.30;5.43;;;12.40;99.90;;;;;;6278074;22;39870;-78
2024/03/15 06:54:18;;;;;;;15.52;5.25;;;12.50;99.90;;;;;;6288456;22;38849;-77
2024/03/15 06:56:44;;;;;;;18.58;4.80;;;12.50;99.90;;;;;;6288012;22;40103;-77
2024/03/15 06:59:11;;;;;;;11.75;5.07;;;12.50;99.90;;;;;;6261073;22;40374;-77
2024/03/15 07:01:37;;;;;;;18.30;5.15;;;12.50;99.90;;;;;;6288332;22;39451;-78
2024/03/15 07:04:07;;;;;;;17.58;4.97;;;12.50;99.90;;;;;;6285698;22;38012;-78
2024/03/15 07:06:33;;;;;;;13.80;5.57;;;12.50;99.90;;;;;;6290630;22;39876;-78
2024/03/15 07:09:04;;;;;;;14.60;5.20;;;12.50;99.90;;;;;;6262024;22;40444;-77
2024/03/15 07:11:33;;;;;;;10.57;4.63;;;12.50;99.90;;;;;;6260029;22;47385;-78
2024/03/15 07:14:04;;;;;;;13.18;4.30;;;12.60;99.90;;;;;;6289167;22;37517;-76
2024/03/15 07:16:30;;;;;;;14.82;5.03;;;12.60;99.90;;;;;;6288539;22;48668;-78
2024/03/15 07:18:57;;;;;;;15.95;5.32;;;12.70;99.90;;;;;;6293113;22;39357;-79
2024/03/15 07:21:29;;;;;;;17.35;5.28;;;12.70;99.90;;;;;;6262775;22;40168;-78
2024/03/15 07:23:55;;;;;;;15.13;5.22;;;12.70;99.90;;;;;;6265538;22;36577;-78
2024/03/15 07:26:22;;;;;;;13.82;4.28;;;12.70;99.90;;;;;;6263555;22;39980;-79
2024/03/15 07:28:48;;;;;;;13.52;4.85;;;12.70;99.90;;;;;;6265623;22;39189;-78
2024/03/15 07:31:14;;;;;;;12.20;4.43;;;12.70;99.90;;;;;;6265817;22;39177;-78
2024/03/15 07:33:41;;;;;;;11.25;3.97;;;12.80;99.90;;;;;;6262601;22;36797;-79
2024/03/15 07:36:13;;;;;;;10.13;3.60;;;12.80;99.90;;;;;;6263649;22;37930;-78
2024/03/15 07:38:51;;;;;;;9.70;5.28;;;12.80;99.90;;;;;;6266114;22;39716;-79
2024/03/15 07:41:18;;;;;;;11.82;3.70;;;12.80;99.90;;;;;;6269509;22;37623;-79
2024/03/15 07:43:44;;;;;;;16.25;4.70;;;12.80;99.90;;;;;;6276373;22;38317;-81
2024/03/15 07:46:10;;;;;;;11.73;3.83;;;12.80;99.90;;;;;;6276136;22;39619;-79
2024/03/15 07:48:36;;;;;;;12.05;3.65;;;12.80;99.90;;;;;;6282781;22;39306;-79
2024/03/15 07:51:03;;;;;;;9.68;3.47;;;12.90;99.90;;;;;;6277995;22;39768;-79
2024/03/15 07:53:29;;;;;;;10.07;3.25;;;12.90;99.90;;;;;;6274186;22;47012;-78
2024/03/15 07:55:55;;;;;;;13.65;3.88;;;13.00;99.90;;;;;;6272287;22;39588;-78
2024/03/15 07:58:21;;;;;;;11.07;3.72;;;13.00;99.90;;;;;;6273350;22;37623;-79
2024/03/15 08:00:47;;;;;;;11.35;4.05;;;13.00;99.90;;;;;;6281252;22;39481;-79
2024/03/15 08:03:13;;;;;;;14.00;4.28;;;13.00;99.90;;;;;;6280992;22;39135;-80
2024/03/15 08:05:40;;;;;;;15.68;4.75;;;13.00;99.90;;;;;;6307396;22;38737;-78
2024/03/15 08:08:06;;;;;;;13.23;4.65;;;13.00;99.90;;;;;;6305177;22;39612;-80
2024/03/15 08:10:32;;;;;;;14.25;4.78;;;13.00;99.90;;;;;;6286999;22;37235;-79
2024/03/15 08:12:59;;;;;;;14.40;4.70;;;13.00;99.90;;;;;;6284290;22;36214;-80
2024/03/15 08:15:32;;;;;;;11.60;4.10;;;13.00;99.90;;;;;;6282071;22;38703;-80
2024/03/15 08:18:03;;;;;;;17.10;5.47;;;13.00;99.90;;;;;;6281597;22;38234;-80
2024/03/15 08:20:29;;;;;;;13.77;5.10;;;13.00;99.90;;;;;;6241480;22;47557;-79
2024/03/15 08:22:55;;;;;;;22.38;6.00;;;13.00;99.90;;;;;;6294290;22;38557;-79
2024/03/15 08:25:23;;;;;;;20.30;5.50;;;13.10;99.90;;;;;;6296898;22;39596;-78
2024/03/15 08:27:49;;;;;;;23.25;5.40;;;13.10;99.90;;;;;;6299140;22;38785;-79
2024/03/15 08:30:16;;;;;;;13.25;4.97;;;13.20;99.90;;;;;;6266059;22;37427;-79
2024/03/15 08:32:45;;;;;;;11.95;4.63;;;13.20;99.90;;;;;;6294535;22;37856;-79
2024/03/15 08:35:14;;;;;;;14.35;4.75;;;13.20;99.90;;;;;;6289883;22;38637;-79
2024/03/15 08:37:43;;;;;;;15.80;4.65;;;13.30;99.90;;;;;;6294909;22;39573;-78
2024/03/15 08:40:12;;;;;;;17.15;5.10;;;13.30;99.90;;;;;;6266485;22;39176;-78
2024/03/15 08:42:40;;;;;;;20.00;4.40;;;13.40;99.90;;;;;;6270832;22;36070;-79
2024/03/15 08:45:08;;;;;;;12.80;4.03;;;13.60;99.90;;;;;;6273336;22;38140;-79
2024/03/15 08:47:37;;;;;;;9.40;3.80;;;13.70;99.90;;;;;;6271668;22;47165;-79
2024/03/15 08:50:03;;;;;;;14.85;4.53;;;13.80;99.90;;;;;;6295794;22;38764;-79
2024/03/15 08:52:30;;;;;;;16.45;3.53;;;13.80;95.90;;;;;;6269632;22;47382;-79
2024/03/15 08:54:56;;;;;;;11.98;2.90;;;13.90;92.30;;;;;;6273832;22;37509;-78
2024/03/15 08:57:22;;;;;;;14.13;3.33;;;13.90;89.00;;;;;;6274898;22;38557;-81
2024/03/15 08:59:49;;;;;;;11.65;2.50;;;14.00;90.90;;;;;;6307725;22;38951;-79
2024/03/15 09:02:15;;;;;;;10.93;2.30;;;14.00;82.40;;;;;;6271050;22;36401;-78
2024/03/15 09:04:41;;;;;;;10.35;2.45;;;14.10;89.20;;;;;;6272217;22;39728;-78
2024/03/15 09:07:07;;;;;;;15.70;3.42;;;14.20;81.00;;;;;;6277107;22;38617;-78
2024/03/15 09:09:34;;;;;;;14.70;2.70;;;14.10;75.40;;;;;;6289959;22;37837;-78
2024/03/15 09:12:00;;;;;;;11.50;2.42;;;14.20;67.00;;;;;;6296000;22;37210;-78
2024/03/15 09:14:29;;;;;;;12.13;2.47;;;14.30;64.00;;;;;;6318897;22;38495;-81
2024/03/15 09:16:59;;;;;;;12.38;2.38;;;14.50;73.30;;;;;;6290802;22;38560;-79
2024/03/15 09:19:25;;;;;;;11.15;2.40;;;14.60;57.40;;;;;;6285734;22;37481;-78
2024/03/15 09:21:53;;;;;;;14.25;2.28;;;14.40;56.60;;;;;;6283655;22;36621;-77
2024/03/15 09:24:19;;;;;;;11.73;2.20;;;14.40;59.90;;;;;;6278221;22;37947;-79
2024/03/15 09:26:46;;;;;;;9.55;2.00;;;14.20;58.90;;;;;;6278634;22;39353;-78
2024/03/15 09:29:13;;;;;;;15.05;2.83;;;14.00;67.00;;;;;;6279394;22;38082;-78
2024/03/15 09:31:40;;;;;;;15.40;2.53;;;13.90;72.70;;;;;;6280660;22;36700;-79
2024/03/15 09:34:06;;;;;;;14.23;2.50;;;13.90;79.70;;;;;;6276534;22;38197;-80
2024/03/15 09:36:33;;;;;;;10.70;2.25;;;13.80;78.80;;;;;;6285533;22;41374;-79
2024/03/15 09:38:59;;;;;;;10.60;2.25;;;13.80;84.00;;;;;;6286374;22;38105;-80
2024/03/15 09:41:28;;;;;;;10.68;3.10;;;13.80;92.90;;;;;;6286982;22;35889;-80
2024/03/15 09:43:55;;;;;;;9.52;3.03;;;13.90;91.30;;;;;;6286350;22;37794;-79
2024/03/15 09:46:22;;;;;;;11.45;2.20;;;13.90;89.20;;;;;;6282667;22;38024;-79
2024/03/15 09:48:52;;;;;;;12.40;2.80;;;14.00;92.50;;;;;;6286754;22;37543;-80
2024/03/15 09:51:19;;;;;;;12.02;2.15;;;14.10;79.90;;;;;;6284549;22;38565;-80
2024/03/15 09:53:45;;;;;;;12.65;3.13;;;14.10;89.80;;;;;;6309960;22;39704;-79
2024/03/15 09:56:19;;;;;;;12.50;2.90;;;14.30;69.80;;;;;;6287941;22;39464;-80
2024/03/15 09:58:50;;;;;;;11.60;2.10;;;14.50;53.00;;;;;;6283623;22;38416;-78
2024/03/15 10:01:17;;;;;;;12.07;2.92;;;14.60;36.80;;;;;;6285035;22;38163;-80
2024/03/15 10:03:47;;;;;;;9.07;2.13;;;14.80;45.00;;;;;;6282972;22;40184;-78
2024/03/15 10:06:19;;;;;;;11.50;2.00;;;14.80;33.20;;;;;;6280277;22;40362;-79
2024/03/15 10:08:45;;;;;;;11.57;2.10;;;14.70;37.50;;;;;;6307990;22;38530;-78
2024/03/15 10:11:11;;;;;;;13.25;2.17;;;14.70;39.40;;;;;;6283896;22;38180;-79
2024/03/15 10:13:38;;;;;;;9.73;2.53;;;15.00;48.90;;;;;;6272203;22;37858;-80
2024/03/15 10:16:08;;;;;;;9.45;1.73;;;15.20;24.20;;;;;;6264373;22;38497;-80
2024/03/15 10:18:38;;;;;;;7.20;2.30;;;15.20;16.40;;;;;;6267196;22;38866;-80
2024/03/15 10:21:05;;;;;;;9.63;2.40;;;15.10;23.80;;;;;;6268780;22;36637;-79
2024/03/15 10:23:31;;;;;;;14.68;2.97;;;14.90;23.20;;;;;;6278120;22;39301;-79
2024/03/15 10:26:00;;;;;;;9.80;2.13;;;14.80;22.40;;;;;;6273321;22;37858;-80
2024/03/15 10:28:28;;;;;;;9.35;1.90;;;14.90;27.90;;;;;;6261366;22;37049;-81
2024/03/15 10:30:57;;;;;;;7.18;1.55;;;15.20;24.30;;;;;;6295305;22;37980;-79
2024/03/15 10:33:23;;;;;;;12.95;2.45;;;15.20;6.10;;;;;;6268174;22;39341;-79
2024/03/15 10:35:49;;;;;;;5.22;1.40;;;15.30;4.00;;;;;;6269158;22;39479;-80
2024/03/15 10:38:16;;;;;;;8.90;2.30;;;15.50;15.00;;;;;;6265240;22;39388;-80
2024/03/15 10:40:45;;;;;;;9.38;1.95;;;15.40;1.00;;;;;;6254823;22;37931;-81
2024/03/15 10:43:12;;;;;;;7.85;1.60;;;15.30;2.20;;;;;;6270037;22;39603;-80
2024/03/15 10:45:43;;;;;;;9.90;2.47;;;15.20;9.80;;;;;;6298422;22;38743;-79
2024/03/15 10:48:14;;;;;;;8.52;2.10;;;15.10;5.40;;;;;;6265215;22;38613;-79
2024/03/15 10:50:43;;;;;;;9.27;1.67;;;15.00;13.60;;;;;;6265917;22;37773;-79
2024/03/15 10:53:17;;;;;;;8.48;1.60;;;15.00;22.60;;;;;;6271269;22;38247;-80
2024/03/15 10:55:43;;;;;;;10.70;1.63;;;15.00;14.60;;;;;;6273836;22;38026;-79
2024/03/15 10:58:11;;;;;;;7.28;1.80;;;15.10;25.40;;;;;;6264881;22;38183;-79
2024/03/15 11:00:39;;;;;;;10.07;2.03;;;15.20;14.10;;;;;;6266766;22;36264;-81
2024/03/15 11:03:21;;;;;;;5.82;1.33;;;15.10;10.70;;;;;;6268527;22;38643;-80
2024/03/15 11:05:47;;;;;;;7.68;2.03;;;15.00;20.30;;;;;;6272486;22;38399;-79
2024/03/15 11:08:16;;;;;;;6.75;1.70;;;15.00;19.10;;;;;;6262725;22;37851;-80
2024/03/15 11:10:56;;;;;;;7.47;1.70;;;15.20;23.90;;;;;;6262688;22;36452;-81
2024/03/15 11:13:23;;;;;;;8.88;1.95;;;15.50;12.90;;;;;;6262286;22;39051;-84
2024/03/15 11:15:49;;;;;;;9.30;2.05;;;15.60;1.00;;;;;;6262081;22;39759;-81
2024/03/15 11:18:19;;;;;;;4.80;1.38;;;15.50;1.00;;;;;;6262487;22;40959;-82
2024/03/15 11:20:55;;;;;;;8.23;1.90;;;15.40;1.00;;;;;;6262371;22;37906;-82
2024/03/15 11:23:27;;;;;;;7.47;1.77;;;15.40;1.00;;;;;;6263778;22;39819;-83
2024/03/15 11:26:24;;;;;;;6.97;1.52;;;15.30;1.00;;;;;;6265600;22;39351;-80
2024/03/15 11:28:56;;;;;;;6.78;1.33;;;15.00;1.00;;;;;;6240436;22;48319;-79
2024/03/15 11:31:25;;;;;;;5.15;1.40;;;14.80;2.40;;;;;;6271482;22;36532;-79
2024/03/15 11:33:55;;;;;;;5.85;1.83;;;14.70;14.70;;;;;;6276471;22;39219;-78
2024/03/15 11:36:21;;;;;;;6.95;1.65;;;14.50;23.40;;;;;;6281631;22;38961;-78
2024/03/15 11:38:50;;;;;;;6.63;1.70;;;14.50;24.10;;;;;;6316825;22;39201;-78
2024/03/15 11:41:20;;;;;;;6.72;1.73;;;14.50;29.30;;;;;;6314232;22;38684;-79
2024/03/15 11:43:48;;;;;;;11.65;2.05;;;14.60;29.20;;;;;;6274080;22;38396;-78
2024/03/15 11:46:15;;;;;;;6.07;1.40;;;14.80;18.70;;;;;;6278536;22;38011;-79
2024/03/15 11:48:42;;;;;;;6.65;1.65;;;14.90;11.80;;;;;;6276207;22;39086;-80
2024/03/15 11:51:08;;;;;;;7.97;1.70;;;15.00;4.50;;;;;;6278354;22;37922;-79
2024/03/15 11:53:37;;;;;;;4.72;1.30;;;15.00;1.00;;;;;;6268888;22;38753;-78
2024/03/15 11:56:07;;;;;;;4.32;1.20;;;15.20;1.00;;;;;;6277618;22;38668;-82
2024/03/15 11:58:42;;;;;;;5.20;1.23;;;15.30;1.00;;;;;;6300333;22;38248;-79
2024/03/15 12:01:10;;;;;;;5.22;1.20;;;15.40;1.00;;;;;;6264268;22;37356;-80
2024/03/15 12:03:37;;;;;;;3.30;0.68;;;15.60;1.00;;;;;;6276845;22;37775;-81
2024/03/15 12:06:06;;;;;;;3.60;0.85;;;15.80;1.00;;;;;;6276359;22;40452;-80
2024/03/15 12:08:33;;;;;;;5.40;1.15;;;15.80;1.00;;;;;;6279656;22;37269;-82
2024/03/15 12:10:59;;;;;;;6.05;1.00;;;15.80;1.00;;;;;;6275488;22;37766;-83
2024/03/15 12:13:28;;;;;;;4.40;1.00;;;15.80;1.00;;;;;;6277250;22;39581;-81
2024/03/15 12:15:56;;;;;;;3.13;0.98;;;15.60;1.00;;;;;;6279620;22;37551;-81
2024/03/15 12:18:24;;;;;;;3.88;1.02;;;15.60;1.00;;;;;;6274601;22;37202;-81
2024/03/15 12:20:51;;;;;;;3.78;1.02;;;15.40;1.00;;;;;;6280724;22;36265;-80
2024/03/15 12:23:20;;;;;;;3.88;1.10;;;15.50;1.00;;;;;;6302098;22;38816;-81
2024/03/15 12:25:47;;;;;;;3.50;0.93;;;15.70;1.00;;;;;;6282805;22;39432;-81
2024/03/15 12:28:15;;;;;;;4.32;1.02;;;15.60;1.00;;;;;;6276373;22;37333;-80
2024/03/15 12:30:46;;;;;;;6.68;1.60;;;15.40;1.00;;;;;;6278207;22;38283;-84
2024/03/15 12:33:13;;;;;;;7.40;1.85;;;15.50;1.00;;;;;;6278728;22;39268;-83
2024/03/15 12:35:40;;;;;;;7.57;1.92;;;15.60;1.00;;;;;;6280906;22;40214;-84
2024/03/15 12:38:18;;;;;;;6.85;1.80;;;15.60;1.00;;;;;;6278223;22;39043;-83
2024/03/15 12:40:44;;;;;;;5.25;2.00;;;15.60;1.00;;;;;;6280090;22;38045;-80
2024/03/15 12:43:13;;;;;;;7.32;2.35;;;15.50;1.00;;;;;;6305817;22;38600;-81
2024/03/15 12:45:43;;;;;;;11.38;2.22;;;15.50;1.00;;;;;;6279716;22;38260;-83
2024/03/15 12:48:10;;;;;;;8.15;2.67;;;15.80;1.00;;;;;;6278813;22;38130;-84
2024/03/15 12:50:37;;;;;;;6.53;2.00;;;15.90;1.00;;;;;;6281168;22;36108;-83
2024/03/15 12:53:05;;;;;;;8.23;2.38;;;16.00;1.00;;;;;;6279274;22;39273;-83
2024/03/15 12:55:31;;;;;;;8.70;2.50;;;16.10;1.00;;;;;;6305309;22;39063;-83
2024/03/15 12:57:58;;;;;;;9.75;2.08;;;16.10;1.00;;;;;;6281720;22;38658;-83
2024/03/15 13:00:28;;;;;;;6.57;2.08;;;16.10;1.00;;;;;;6279275;22;37529;-83
2024/03/15 13:02:55;;;;;;;13.90;2.40;;;16.00;1.00;;;;;;6278675;22;40261;-84
2024/03/15 13:05:21;;;;;;;10.82;2.75;;;16.10;1.00;;;;;;6278522;22;40315;-82
2024/03/15 13:07:49;;;;;;;9.15;2.33;;;16.40;1.00;;;;;;6309134;22;38635;-85
2024/03/15 13:10:15;;;;;;;7.20;2.22;;;16.30;1.00;;;;;;6277580;22;37812;-84
2024/03/15 13:12:51;;;;;;;8.27;2.13;;;16.20;1.00;;;;;;6307847;22;38918;-83
2024/03/15 13:15:18;;;;;;;7.38;2.30;;;16.20;1.00;;;;;;6277413;22;38340;-84
2024/03/15 13:17:48;;;;;;;9.90;2.90;;;16.50;1.00;;;;;;6280551;22;37582;-84
2024/03/15 13:20:18;;;;;;;10.10;2.15;;;16.50;1.00;;;;;;6279834;22;36424;-82
2024/03/15 13:22:54;;;;;;;7.35;2.08;;;16.50;1.00;;;;;;6280497;22;37763;-85
2024/03/15 13:25:22;;;;;;;7.40;2.03;;;16.40;1.00;;;;;;6280813;22;37765;-84
2024/03/15 13:27:49;;;;;;;9.68;2.40;;;16.30;1.00;;;;;;6283243;22;38748;-83
2024/03/15 13:30:17;;;;;;;9.35;2.63;;;16.20;1.00;;;;;;6305182;22;37051;-81
2024/03/15 13:32:45;;;;;;;10.63;2.00;;;16.20;1.00;;;;;;6279196;22;39351;-83
2024/03/15 13:35:15;;;;;;;11.40;2.67;;;16.40;1.00;;;;;;6278326;22;38666;-83
2024/03/15 13:37:43;;;;;;;9.13;2.50;;;16.40;1.00;;;;;;6282114;22;37415;-84
2024/03/15 13:40:15;;;;;;;14.00;2.97;;;16.20;1.00;;;;;;6280875;22;36696;-83
2024/03/15 13:42:46;;;;;;;;;;;15.80;1.00;;;;;;6281692;22;38002;-82
2024/03/15 13:45:13;;;;;;;14.95;2.78;;;15.40;1.00;;;;;;6278181;22;39698;-81
2024/03/15 13:48:35;;;;;;;13.90;2.67;;;15.40;1.00;;;;;;6281040;22;37660;-83
2024/03/15 13:51:04;;;;;;;19.45;3.50;;;15.70;1.00;;;;;;6278706;22;47258;-81
2024/03/15 13:53:33;;;;;;;10.98;3.35;;;15.60;1.00;;;;;;6278705;22;47376;-80
2024/03/15 13:56:00;;;;;;;11.60;3.78;;;15.70;1.00;;;;;;6308596;22;38686;-81
2024/03/15 13:58:26;;;;;;;13.13;3.70;;;16.00;1.00;;;;;;6281725;22;37310;-81
2024/03/15 14:00:52;;;;;;;15.13;3.42;;;15.90;1.00;;;;;;6281488;22;36943;-82
2024/03/15 14:03:18;;;;;;;13.98;3.28;;;15.60;1.00;;;;;;6279863;22;37613;-81
2024/03/15 14:05:45;;;;;;;14.15;3.65;;;15.50;1.00;;;;;;6279669;22;38364;-80
2024/03/15 14:08:15;;;;;;;17.65;3.53;;;15.40;1.00;;;;;;6276547;22;37876;-81
2024/03/15 14:10:42;;;;;;;13.27;3.55;;;15.30;1.00;;;;;;6279861;22;36285;-81
2024/03/15 14:13:15;;;;;;;18.42;3.70;;;15.40;1.00;;;;;;6282840;22;37537;-81
2024/03/15 14:15:41;;;;;;;19.45;3.70;;;15.30;1.00;;;;;;6286457;22;37815;-80
2024/03/15 14:18:08;;;;;;;13.48;3.10;;;15.20;1.00;;;;;;6289906;22;37274;-80
2024/03/15 14:20:35;;;;;;;12.93;3.25;;;15.10;1.00;;;;;;6292938;22;37381;-78